sensor_id;sensor_type;location;lat;lon;timestamp;P1;durP1;ratioP1;P2;durP2;ratioP2
26864;SDS011;40618;51.166;10.322;2024-01-15T00:01:59;27.58;;;13.38;;
26864;SDS011;40618;51.166;10.322;2024-01-15T00:04:25;29.70;;;15.45;;
26864;SDS011;40618;51.166;10.322;2024-01-15T00:06:50;30.25;;;14.23;;
26864;SDS011;40618;51.166;10.322;2024-01-15T00:09:16;33.05;;;17.55;;
26864;SDS011;40618;51.166;10.322;2024-01-15T00:11:42;21.90;;;11.27;;
26864;SDS011;40618;51.166;10.322;2024-01-15T00:14:08;27.23;;;13.45;;
26864;SDS011;40618;51.166;10.322;2024-01-15T00:16:34;26.55;;;13.93;;
26864;SDS011;40618;51.166;10.322;2024-01-15T00:19:00;25.42;;;13.00;;
26864;SDS011;40618;51.166;10.322;2024-01-15T00:21:25;26.85;;;14.02;;
26864;SDS011;40618;51.166;10.322;2024-01-15T00:23:52;28.85;;;14.45;;
26864;SDS011;40618;51.166;10.322;2024-01-15T00:26:17;35.13;;;16.42;;
26864;SDS011;40618;51.166;10.322;2024-01-15T00:28:43;25.67;;;13.60;;
26864;SDS011;40618;51.166;10.322;2024-01-15T00:31:09;41.38;;;18.95;;
26864;SDS011;40618;51.166;10.322;2024-01-15T00:33:34;29.20;;;14.63;;
26864;SDS011;40618;51.166;10.322;2024-01-15T00:36:00;24.13;;;12.63;;
26864;SDS011;40618;51.166;10.322;2024-01-15T00:38:26;29.27;;;15.23;;
26864;SDS011;40618;51.166;10.322;2024-01-15T00:40:51;36.75;;;16.77;;
26864;SDS011;40618;51.166;10.322;2024-01-15T00:43:17;30.45;;;15.95;;
26864;SDS011;40618;51.166;10.322;2024-01-15T00:45:44;33.00;;;14.43;;
26864;SDS011;40618;51.166;10.322;2024-01-15T00:48:10;25.73;;;12.82;;
26864;SDS011;40618;51.166;10.322;2024-01-15T00:50:35;26.13;;;13.95;;
26864;SDS011;40618;51.166;10.322;2024-01-15T00:53:01;25.52;;;13.05;;
26864;SDS011;40618;51.166;10.322;2024-01-15T00:55:28;32.20;;;16.13;;
26864;SDS011;40618;51.166;10.322;2024-01-15T00:57:54;32.88;;;14.75;;
26864;SDS011;40618;51.166;10.322;2024-01-15T01:00:20;29.00;;;14.23;;
26864;SDS011;40618;51.166;10.322;2024-01-15T01:02:46;37.92;;;16.17;;
26864;SDS011;40618;51.166;10.322;2024-01-15T01:05:11;36.25;;;17.00;;
26864;SDS011;40618;51.166;10.322;2024-01-15T01:07:37;39.08;;;18.25;;
26864;SDS011;40618;51.166;10.322;2024-01-15T01:10:03;29.30;;;14.77;;
26864;SDS011;40618;51.166;10.322;2024-01-15T01:12:29;39.97;;;18.13;;
26864;SDS011;40618;51.166;10.322;2024-01-15T01:14:55;27.48;;;14.93;;
26864;SDS011;40618;51.166;10.322;2024-01-15T01:17:21;32.47;;;15.25;;
26864;SDS011;40618;51.166;10.322;2024-01-15T01:19:47;47.05;;;20.27;;
26864;SDS011;40618;51.166;10.322;2024-01-15T01:22:12;28.25;;;14.18;;
26864;SDS011;40618;51.166;10.322;2024-01-15T01:24:38;47.80;;;21.13;;
26864;SDS011;40618;51.166;10.322;2024-01-15T01:27:04;28.30;;;13.77;;
26864;SDS011;40618;51.166;10.322;2024-01-15T01:29:29;31.92;;;13.90;;
26864;SDS011;40618;51.166;10.322;2024-01-15T01:31:55;24.17;;;12.40;;
26864;SDS011;40618;51.166;10.322;2024-01-15T01:34:21;24.25;;;11.75;;
26864;SDS011;40618;51.166;10.322;2024-01-15T01:36:47;29.35;;;13.50;;
26864;SDS011;40618;51.166;10.322;2024-01-15T01:39:12;30.65;;;16.70;;
26864;SDS011;40618;51.166;10.322;2024-01-15T01:41:38;23.35;;;12.65;;
26864;SDS011;40618;51.166;10.322;2024-01-15T01:44:05;26.17;;;11.80;;
26864;SDS011;40618;51.166;10.322;2024-01-15T01:46:31;21.73;;;11.07;;
26864;SDS011;40618;51.166;10.322;2024-01-15T01:48:56;18.55;;;10.60;;
26864;SDS011;40618;51.166;10.322;2024-01-15T01:51:26;26.40;;;12.60;;
26864;SDS011;40618;51.166;10.322;2024-01-15T01:53:52;24.52;;;12.75;;
26864;SDS011;40618;51.166;10.322;2024-01-15T01:56:17;20.95;;;11.23;;
26864;SDS011;40618;51.166;10.322;2024-01-15T01:58:44;23.48;;;11.27;;
26864;SDS011;40618;51.166;10.322;2024-01-15T02:01:11;19.92;;;10.98;;
26864;SDS011;40618;51.166;10.322;2024-01-15T02:03:38;20.90;;;11.05;;
26864;SDS011;40618;51.166;10.322;2024-01-15T02:06:05;22.52;;;11.88;;
26864;SDS011;40618;51.166;10.322;2024-01-15T02:08:32;19.27;;;10.18;;
26864;SDS011;40618;51.166;10.322;2024-01-15T02:10:59;21.63;;;10.88;;
26864;SDS011;40618;51.166;10.322;2024-01-15T02:13:25;20.35;;;11.00;;
26864;SDS011;40618;51.166;10.322;2024-01-15T02:15:51;19.52;;;10.27;;
26864;SDS011;40618;51.166;10.322;2024-01-15T02:18:16;18.50;;;8.82;;
26864;SDS011;40618;51.166;10.322;2024-01-15T02:20:42;17.30;;;9.88;;
26864;SDS011;40618;51.166;10.322;2024-01-15T02:23:12;22.60;;;10.43;;
26864;SDS011;40618;51.166;10.322;2024-01-15T02:25:46;18.90;;;9.90;;
26864;SDS011;40618;51.166;10.322;2024-01-15T02:28:15;21.27;;;9.32;;
26864;SDS011;40618;51.166;10.322;2024-01-15T02:30:43;20.33;;;9.05;;
26864;SDS011;40618;51.166;10.322;2024-01-15T02:33:09;19.33;;;9.65;;
26864;SDS011;40618;51.166;10.322;2024-01-15T02:35:36;18.80;;;8.95;;
26864;SDS011;40618;51.166;10.322;2024-01-15T02:38:02;17.42;;;8.93;;
26864;SDS011;40618;51.166;10.322;2024-01-15T02:40:29;16.88;;;8.82;;
26864;SDS011;40618;51.166;10.322;2024-01-15T02:42:54;17.42;;;9.38;;
26864;SDS011;40618;51.166;10.322;2024-01-15T02:45:20;18.33;;;9.93;;
26864;SDS011;40618;51.166;10.322;2024-01-15T02:47:46;16.20;;;8.63;;
26864;SDS011;40618;51.166;10.322;2024-01-15T02:50:12;17.88;;;8.80;;
26864;SDS011;40618;51.166;10.322;2024-01-15T02:52:38;15.13;;;8.20;;
26864;SDS011;40618;51.166;10.322;2024-01-15T02:55:04;15.98;;;8.48;;
26864;SDS011;40618;51.166;10.322;2024-01-15T02:57:30;17.42;;;8.57;;
26864;SDS011;40618;51.166;10.322;2024-01-15T02:59:55;19.27;;;8.75;;
26864;SDS011;40618;51.166;10.322;2024-01-15T03:02:21;16.42;;;9.07;;
26864;SDS011;40618;51.166;10.322;2024-01-15T03:04:47;17.75;;;8.00;;
26864;SDS011;40618;51.166;10.322;2024-01-15T03:07:12;17.10;;;9.35;;
26864;SDS011;40618;51.166;10.322;2024-01-15T03:09:38;15.98;;;8.50;;
26864;SDS011;40618;51.166;10.322;2024-01-15T03:12:04;15.77;;;8.25;;
26864;SDS011;40618;51.166;10.322;2024-01-15T03:14:30;16.88;;;9.43;;
26864;SDS011;40618;51.166;10.322;2024-01-15T03:16:55;16.90;;;7.97;;
26864;SDS011;40618;51.166;10.322;2024-01-15T03:19:21;15.50;;;8.52;;
26864;SDS011;40618;51.166;10.322;2024-01-15T03:21:47;16.02;;;9.35;;
26864;SDS011;40618;51.166;10.322;2024-01-15T03:24:12;14.93;;;7.95;;
26864;SDS011;40618;51.166;10.322;2024-01-15T03:26:38;14.25;;;7.65;;
26864;SDS011;40618;51.166;10.322;2024-01-15T03:29:04;14.77;;;8.57;;
26864;SDS011;40618;51.166;10.322;2024-01-15T03:31:29;13.50;;;7.68;;
26864;SDS011;40618;51.166;10.322;2024-01-15T03:33:55;12.80;;;7.97;;
26864;SDS011;40618;51.166;10.322;2024-01-15T03:36:21;15.30;;;7.90;;
26864;SDS011;40618;51.166;10.322;2024-01-15T03:38:47;18.75;;;8.82;;
26864;SDS011;40618;51.166;10.322;2024-01-15T03:41:12;13.25;;;7.88;;
26864;SDS011;40618;51.166;10.322;2024-01-15T03:43:38;12.57;;;7.20;;
26864;SDS011;40618;51.166;10.322;2024-01-15T03:46:04;13.35;;;7.85;;
26864;SDS011;40618;51.166;10.322;2024-01-15T03:48:31;11.95;;;7.20;;
26864;SDS011;40618;51.166;10.322;2024-01-15T03:50:56;12.02;;;7.60;;
26864;SDS011;40618;51.166;10.322;2024-01-15T03:53:22;11.40;;;7.20;;
26864;SDS011;40618;51.166;10.322;2024-01-15T03:55:47;10.18;;;6.30;;
26864;SDS011;40618;51.166;10.322;2024-01-15T03:58:14;15.38;;;7.60;;
26864;SDS011;40618;51.166;10.322;2024-01-15T04:00:42;12.52;;;6.60;;
26864;SDS011;40618;51.166;10.322;2024-01-15T04:03:08;13.32;;;7.53;;
26864;SDS011;40618;51.166;10.322;2024-01-15T04:05:34;13.73;;;7.68;;
26864;SDS011;40618;51.166;10.322;2024-01-15T04:08:00;13.15;;;7.40;;
26864;SDS011;40618;51.166;10.322;2024-01-15T04:10:26;12.38;;;7.05;;
26864;SDS011;40618;51.166;10.322;2024-01-15T04:12:52;11.52;;;6.75;;
26864;SDS011;40618;51.166;10.322;2024-01-15T04:15:17;14.70;;;6.88;;
26864;SDS011;40618;51.166;10.322;2024-01-15T04:17:43;12.30;;;6.50;;
26864;SDS011;40618;51.166;10.322;2024-01-15T04:20:09;10.15;;;6.07;;
26864;SDS011;40618;51.166;10.322;2024-01-15T04:22:35;14.55;;;7.60;;
26864;SDS011;40618;51.166;10.322;2024-01-15T04:25:01;12.98;;;6.80;;
26864;SDS011;40618;51.166;10.322;2024-01-15T04:27:27;10.93;;;6.28;;
26864;SDS011;40618;51.166;10.322;2024-01-15T04:29:53;13.95;;;7.32;;
26864;SDS011;40618;51.166;10.322;2024-01-15T04:32:19;13.55;;;6.47;;
26864;SDS011;40618;51.166;10.322;2024-01-15T04:34:45;12.43;;;6.28;;
26864;SDS011;40618;51.166;10.322;2024-01-15T04:37:10;12.48;;;6.45;;
26864;SDS011;40618;51.166;10.322;2024-01-15T04:39:36;13.90;;;6.68;;
26864;SDS011;40618;51.166;10.322;2024-01-15T04:42:02;12.13;;;7.18;;
26864;SDS011;40618;51.166;10.322;2024-01-15T04:44:28;10.43;;;6.22;;
26864;SDS011;40618;51.166;10.322;2024-01-15T04:46:54;11.82;;;7.32;;
26864;SDS011;40618;51.166;10.322;2024-01-15T04:49:19;9.98;;;6.10;;
26864;SDS011;40618;51.166;10.322;2024-01-15T04:51:45;11.32;;;6.57;;
26864;SDS011;40618;51.166;10.322;2024-01-15T04:54:11;10.93;;;5.70;;
26864;SDS011;40618;51.166;10.322;2024-01-15T04:56:36;12.07;;;6.68;;
26864;SDS011;40618;51.166;10.322;2024-01-15T04:59:02;13.23;;;6.82;;
26864;SDS011;40618;51.166;10.322;2024-01-15T05:01:31;10.95;;;6.38;;
26864;SDS011;40618;51.166;10.322;2024-01-15T05:03:57;11.60;;;6.50;;
26864;SDS011;40618;51.166;10.322;2024-01-15T05:06:23;10.63;;;5.95;;
26864;SDS011;40618;51.166;10.322;2024-01-15T05:08:49;11.65;;;7.13;;
26864;SDS011;40618;51.166;10.322;2024-01-15T05:11:14;11.75;;;6.35;;
26864;SDS011;40618;51.166;10.322;2024-01-15T05:13:40;12.15;;;6.82;;
26864;SDS011;40618;51.166;10.322;2024-01-15T05:16:05;14.13;;;7.35;;
26864;SDS011;40618;51.166;10.322;2024-01-15T05:18:31;19.75;;;8.93;;
26864;SDS011;40618;51.166;10.322;2024-01-15T05:20:57;17.55;;;8.55;;
26864;SDS011;40618;51.166;10.322;2024-01-15T05:23:22;13.70;;;8.40;;
26864;SDS011;40618;51.166;10.322;2024-01-15T05:25:48;15.98;;;9.30;;
26864;SDS011;40618;51.166;10.322;2024-01-15T05:28:14;11.40;;;6.55;;
26864;SDS011;40618;51.166;10.322;2024-01-15T05:30:39;12.38;;;7.30;;
26864;SDS011;40618;51.166;10.322;2024-01-15T05:33:05;13.05;;;7.38;;
26864;SDS011;40618;51.166;10.322;2024-01-15T05:35:32;16.48;;;7.15;;
26864;SDS011;40618;51.166;10.322;2024-01-15T05:37:58;10.18;;;6.43;;
26864;SDS011;40618;51.166;10.322;2024-01-15T05:40:24;12.98;;;7.43;;
26864;SDS011;40618;51.166;10.322;2024-01-15T05:42:50;12.23;;;7.32;;
26864;SDS011;40618;51.166;10.322;2024-01-15T05:45:15;13.88;;;6.90;;
26864;SDS011;40618;51.166;10.322;2024-01-15T05:47:41;13.85;;;6.68;;
26864;SDS011;40618;51.166;10.322;2024-01-15T05:50:07;13.55;;;6.88;;
26864;SDS011;40618;51.166;10.322;2024-01-15T05:52:33;15.38;;;7.43;;
26864;SDS011;40618;51.166;10.322;2024-01-15T05:54:59;13.73;;;7.82;;
26864;SDS011;40618;51.166;10.322;2024-01-15T05:57:25;12.20;;;6.78;;
26864;SDS011;40618;51.166;10.322;2024-01-15T05:59:50;10.52;;;6.63;;
26864;SDS011;40618;51.166;10.322;2024-01-15T06:02:16;14.13;;;7.43;;
26864;SDS011;40618;51.166;10.322;2024-01-15T06:04:41;13.35;;;6.82;;
26864;SDS011;40618;51.166;10.322;2024-01-15T06:07:07;17.27;;;10.13;;
26864;SDS011;40618;51.166;10.322;2024-01-15T06:09:33;17.77;;;7.40;;
26864;SDS011;40618;51.166;10.322;2024-01-15T06:11:59;13.98;;;7.45;;
26864;SDS011;40618;51.166;10.322;2024-01-15T06:14:24;16.40;;;7.43;;
26864;SDS011;40618;51.166;10.322;2024-01-15T06:16:50;15.73;;;7.95;;
26864;SDS011;40618;51.166;10.322;2024-01-15T06:19:17;16.52;;;7.40;;
26864;SDS011;40618;51.166;10.322;2024-01-15T06:21:43;12.80;;;7.20;;
26864;SDS011;40618;51.166;10.322;2024-01-15T06:24:08;13.45;;;7.47;;
26864;SDS011;40618;51.166;10.322;2024-01-15T06:26:35;17.13;;;7.57;;
26864;SDS011;40618;51.166;10.322;2024-01-15T06:29:01;14.55;;;8.10;;
26864;SDS011;40618;51.166;10.322;2024-01-15T06:31:28;17.00;;;7.47;;
26864;SDS011;40618;51.166;10.322;2024-01-15T06:33:53;13.68;;;6.90;;
26864;SDS011;40618;51.166;10.322;2024-01-15T06:36:20;13.27;;;7.03;;
26864;SDS011;40618;51.166;10.322;2024-01-15T06:38:46;12.35;;;6.85;;
26864;SDS011;40618;51.166;10.322;2024-01-15T06:41:12;16.33;;;7.30;;
26864;SDS011;40618;51.166;10.322;2024-01-15T06:43:37;16.20;;;7.45;;
26864;SDS011;40618;51.166;10.322;2024-01-15T06:46:03;18.73;;;7.68;;
26864;SDS011;40618;51.166;10.322;2024-01-15T06:48:29;11.80;;;6.88;;
26864;SDS011;40618;51.166;10.322;2024-01-15T06:50:54;14.52;;;7.75;;
26864;SDS011;40618;51.166;10.322;2024-01-15T06:53:20;14.68;;;7.30;;
26864;SDS011;40618;51.166;10.322;2024-01-15T06:55:45;13.55;;;7.03;;
26864;SDS011;40618;51.166;10.322;2024-01-15T06:58:11;15.63;;;7.25;;
26864;SDS011;40618;51.166;10.322;2024-01-15T07:00:37;14.35;;;7.72;;
26864;SDS011;40618;51.166;10.322;2024-01-15T07:03:03;16.55;;;8.23;;
26864;SDS011;40618;51.166;10.322;2024-01-15T07:05:28;16.67;;;8.23;;
26864;SDS011;40618;51.166;10.322;2024-01-15T07:07:55;17.08;;;7.80;;
26864;SDS011;40618;51.166;10.322;2024-01-15T07:10:21;14.57;;;7.55;;
26864;SDS011;40618;51.166;10.322;2024-01-15T07:12:47;14.57;;;7.70;;
26864;SDS011;40618;51.166;10.322;2024-01-15T07:15:12;12.57;;;6.68;;
26864;SDS011;40618;51.166;10.322;2024-01-15T07:17:38;13.60;;;7.60;;
26864;SDS011;40618;51.166;10.322;2024-01-15T07:20:05;17.50;;;7.72;;
26864;SDS011;40618;51.166;10.322;2024-01-15T07:22:33;15.60;;;6.82;;
26864;SDS011;40618;51.166;10.322;2024-01-15T07:25:00;13.15;;;7.60;;
26864;SDS011;40618;51.166;10.322;2024-01-15T07:27:25;16.60;;;7.88;;
26864;SDS011;40618;51.166;10.322;2024-01-15T07:29:51;18.02;;;7.57;;
26864;SDS011;40618;51.166;10.322;2024-01-15T07:32:17;17.02;;;7.78;;
26864;SDS011;40618;51.166;10.322;2024-01-15T07:34:43;16.90;;;8.65;;
26864;SDS011;40618;51.166;10.322;2024-01-15T07:37:08;15.30;;;7.78;;
26864;SDS011;40618;51.166;10.322;2024-01-15T07:39:34;12.30;;;7.40;;
26864;SDS011;40618;51.166;10.322;2024-01-15T07:41:59;15.68;;;7.10;;
26864;SDS011;40618;51.166;10.322;2024-01-15T07:44:25;15.95;;;7.40;;
26864;SDS011;40618;51.166;10.322;2024-01-15T07:46:51;18.25;;;8.57;;
26864;SDS011;40618;51.166;10.322;2024-01-15T07:49:17;17.13;;;7.97;;
26864;SDS011;40618;51.166;10.322;2024-01-15T07:51:42;19.80;;;9.02;;
26864;SDS011;40618;51.166;10.322;2024-01-15T07:54:11;21.77;;;8.85;;
26864;SDS011;40618;51.166;10.322;2024-01-15T07:59:24;26.02;;;12.30;;
26864;SDS011;40618;51.166;10.322;2024-01-15T08:01:51;14.38;;;8.25;;
26864;SDS011;40618;51.166;10.322;2024-01-15T08:04:17;22.98;;;10.95;;
26864;SDS011;40618;51.166;10.322;2024-01-15T08:06:43;24.05;;;9.77;;
26864;SDS011;40618;51.166;10.322;2024-01-15T08:09:09;19.88;;;9.80;;
26864;SDS011;40618;51.166;10.322;2024-01-15T08:11:35;19.38;;;9.55;;
26864;SDS011;40618;51.166;10.322;2024-01-15T08:14:00;16.25;;;9.30;;
26864;SDS011;40618;51.166;10.322;2024-01-15T08:16:26;21.27;;;9.60;;
26864;SDS011;40618;51.166;10.322;2024-01-15T08:18:52;17.60;;;9.25;;
26864;SDS011;40618;51.166;10.322;2024-01-15T08:21:18;16.52;;;8.73;;
26864;SDS011;40618;51.166;10.322;2024-01-15T08:23:44;18.40;;;9.40;;
26864;SDS011;40618;51.166;10.322;2024-01-15T08:26:10;24.30;;;10.80;;
26864;SDS011;40618;51.166;10.322;2024-01-15T08:28:36;20.35;;;9.85;;
26864;SDS011;40618;51.166;10.322;2024-01-15T08:31:02;14.52;;;7.40;;
26864;SDS011;40618;51.166;10.322;2024-01-15T08:33:28;19.33;;;9.15;;
26864;SDS011;40618;51.166;10.322;2024-01-15T08:35:54;21.70;;;10.20;;
26864;SDS011;40618;51.166;10.322;2024-01-15T08:38:21;20.05;;;9.32;;
26864;SDS011;40618;51.166;10.322;2024-01-15T08:40:46;20.75;;;9.43;;
26864;SDS011;40618;51.166;10.322;2024-01-15T08:43:12;16.58;;;8.38;;
26864;SDS011;40618;51.166;10.322;2024-01-15T08:45:38;19.38;;;9.15;;
26864;SDS011;40618;51.166;10.322;2024-01-15T08:48:04;19.75;;;9.07;;
26864;SDS011;40618;51.166;10.322;2024-01-15T08:50:30;25.75;;;9.88;;
26864;SDS011;40618;51.166;10.322;2024-01-15T08:52:57;19.65;;;8.93;;
26864;SDS011;40618;51.166;10.322;2024-01-15T08:55:23;19.25;;;8.48;;
26864;SDS011;40618;51.166;10.322;2024-01-15T08:57:49;17.60;;;8.50;;
26864;SDS011;40618;51.166;10.322;2024-01-15T09:00:15;18.17;;;8.95;;
26864;SDS011;40618;51.166;10.322;2024-01-15T09:02:42;21.55;;;8.75;;
26864;SDS011;40618;51.166;10.322;2024-01-15T09:05:08;18.40;;;8.85;;
26864;SDS011;40618;51.166;10.322;2024-01-15T09:07:34;15.70;;;8.13;;
26864;SDS011;40618;51.166;10.322;2024-01-15T09:10:00;18.25;;;8.82;;
26864;SDS011;40618;51.166;10.322;2024-01-15T09:12:27;15.25;;;8.63;;
26864;SDS011;40618;51.166;10.322;2024-01-15T09:14:53;22.20;;;9.13;;
26864;SDS011;40618;51.166;10.322;2024-01-15T09:17:19;13.48;;;8.05;;
26864;SDS011;40618;51.166;10.322;2024-01-15T09:19:46;15.02;;;7.82;;
26864;SDS011;40618;51.166;10.322;2024-01-15T09:22:12;15.77;;;8.52;;
26864;SDS011;40618;51.166;10.322;2024-01-15T09:24:40;19.98;;;8.00;;
26864;SDS011;40618;51.166;10.322;2024-01-15T09:27:06;17.98;;;8.07;;
26864;SDS011;40618;51.166;10.322;2024-01-15T09:29:32;13.85;;;7.13;;
26864;SDS011;40618;51.166;10.322;2024-01-15T09:31:58;17.52;;;9.27;;
26864;SDS011;40618;51.166;10.322;2024-01-15T09:34:23;15.50;;;7.63;;
26864;SDS011;40618;51.166;10.322;2024-01-15T09:36:49;20.25;;;9.00;;
26864;SDS011;40618;51.166;10.322;2024-01-15T09:39:15;18.27;;;8.45;;
26864;SDS011;40618;51.166;10.322;2024-01-15T09:41:40;17.85;;;8.85;;
26864;SDS011;40618;51.166;10.322;2024-01-15T09:44:06;15.10;;;8.23;;
26864;SDS011;40618;51.166;10.322;2024-01-15T09:46:33;19.25;;;8.15;;
26864;SDS011;40618;51.166;10.322;2024-01-15T09:49:00;15.95;;;8.77;;
26864;SDS011;40618;51.166;10.322;2024-01-15T09:51:27;22.15;;;9.43;;
26864;SDS011;40618;51.166;10.322;2024-01-15T09:53:57;18.67;;;8.93;;
26864;SDS011;40618;51.166;10.322;2024-01-15T09:56:23;17.17;;;8.75;;
26864;SDS011;40618;51.166;10.322;2024-01-15T09:58:49;18.70;;;9.60;;
26864;SDS011;40618;51.166;10.322;2024-01-15T10:01:17;16.40;;;7.97;;
26864;SDS011;40618;51.166;10.322;2024-01-15T10:03:46;20.20;;;7.97;;
26864;SDS011;40618;51.166;10.322;2024-01-15T10:06:14;18.67;;;8.82;;
26864;SDS011;40618;51.166;10.322;2024-01-15T10:08:51;13.95;;;7.75;;
26864;SDS011;40618;51.166;10.322;2024-01-15T10:11:17;19.38;;;9.25;;
26864;SDS011;40618;51.166;10.322;2024-01-15T10:13:43;24.77;;;11.30;;
26864;SDS011;40618;51.166;10.322;2024-01-15T10:16:09;19.10;;;8.23;;
26864;SDS011;40618;51.166;10.322;2024-01-15T10:18:36;17.27;;;7.20;;
26864;SDS011;40618;51.166;10.322;2024-01-15T10:21:04;18.08;;;8.38;;
26864;SDS011;40618;51.166;10.322;2024-01-15T10:23:32;14.75;;;7.88;;
26864;SDS011;40618;51.166;10.322;2024-01-15T10:25:58;13.07;;;6.65;;
26864;SDS011;40618;51.166;10.322;2024-01-15T10:28:25;14.98;;;7.15;;
26864;SDS011;40618;51.166;10.322;2024-01-15T10:30:53;11.88;;;6.70;;
26864;SDS011;40618;51.166;10.322;2024-01-15T10:33:22;14.98;;;9.20;;
26864;SDS011;40618;51.166;10.322;2024-01-15T10:35:53;15.45;;;7.35;;
26864;SDS011;40618;51.166;10.322;2024-01-15T10:38:23;15.55;;;6.90;;
26864;SDS011;40618;51.166;10.322;2024-01-15T10:40:53;13.15;;;6.97;;
26864;SDS011;40618;51.166;10.322;2024-01-15T10:43:20;13.07;;;6.88;;
26864;SDS011;40618;51.166;10.322;2024-01-15T10:45:48;11.15;;;6.15;;
26864;SDS011;40618;51.166;10.322;2024-01-15T10:48:18;16.25;;;7.05;;
26864;SDS011;40618;51.166;10.322;2024-01-15T10:50:45;12.88;;;7.13;;
26864;SDS011;40618;51.166;10.322;2024-01-15T10:53:15;12.73;;;6.55;;
26864;SDS011;40618;51.166;10.322;2024-01-15T10:55:42;11.23;;;6.30;;
26864;SDS011;40618;51.166;10.322;2024-01-15T10:58:09;14.32;;;7.57;;
26864;SDS011;40618;51.166;10.322;2024-01-15T11:00:35;13.48;;;6.32;;
26864;SDS011;40618;51.166;10.322;2024-01-15T11:03:05;13.38;;;7.25;;
26864;SDS011;40618;51.166;10.322;2024-01-15T11:05:38;15.30;;;6.45;;
26864;SDS011;40618;51.166;10.322;2024-01-15T11:08:06;15.35;;;7.80;;
26864;SDS011;40618;51.166;10.322;2024-01-15T11:13:08;15.68;;;7.15;;
26864;SDS011;40618;51.166;10.322;2024-01-15T11:15:54;12.43;;;6.75;;
26864;SDS011;40618;51.166;10.322;2024-01-15T11:19:14;12.25;;;6.95;;
26864;SDS011;40618;51.166;10.322;2024-01-15T11:21:24;12.20;;;6.25;;
26864;SDS011;40618;51.166;10.322;2024-01-15T11:26:29;11.57;;;5.93;;
26864;SDS011;40618;51.166;10.322;2024-01-15T11:28:56;12.77;;;5.93;;
26864;SDS011;40618;51.166;10.322;2024-01-15T11:31:59;11.70;;;5.75;;
26864;SDS011;40618;51.166;10.322;2024-01-15T11:34:20;10.80;;;5.68;;
26864;SDS011;40618;51.166;10.322;2024-01-15T11:41:55;18.67;;;7.82;;
26864;SDS011;40618;51.166;10.322;2024-01-15T11:44:22;13.68;;;7.25;;
26864;SDS011;40618;51.166;10.322;2024-01-15T11:46:58;16.90;;;8.30;;
26864;SDS011;40618;51.166;10.322;2024-01-15T11:52:25;13.30;;;6.82;;
26864;SDS011;40618;51.166;10.322;2024-01-15T11:57:55;12.43;;;6.90;;
26864;SDS011;40618;51.166;10.322;2024-01-15T12:00:24;16.73;;;7.53;;
26864;SDS011;40618;51.166;10.322;2024-01-15T12:02:49;11.77;;;5.97;;
26864;SDS011;40618;51.166;10.322;2024-01-15T12:05:19;12.68;;;5.95;;
26864;SDS011;40618;51.166;10.322;2024-01-15T12:07:46;12.15;;;5.82;;
26864;SDS011;40618;51.166;10.322;2024-01-15T12:10:15;13.90;;;5.95;;
26864;SDS011;40618;51.166;10.322;2024-01-15T12:15:24;9.02;;;5.65;;
26864;SDS011;40618;51.166;10.322;2024-01-15T12:17:54;11.70;;;6.57;;
26864;SDS011;40618;51.166;10.322;2024-01-15T12:20:22;13.13;;;6.65;;
26864;SDS011;40618;51.166;10.322;2024-01-15T12:22:51;10.70;;;6.55;;
26864;SDS011;40618;51.166;10.322;2024-01-15T12:25:17;11.10;;;5.78;;
26864;SDS011;40618;51.166;10.322;2024-01-15T12:27:44;12.48;;;6.82;;
26864;SDS011;40618;51.166;10.322;2024-01-15T12:30:11;11.23;;;6.32;;
26864;SDS011;40618;51.166;10.322;2024-01-15T12:32:39;12.00;;;7.05;;
26864;SDS011;40618;51.166;10.322;2024-01-15T12:35:06;13.50;;;6.72;;
26864;SDS011;40618;51.166;10.322;2024-01-15T12:37:36;13.23;;;6.60;;
26864;SDS011;40618;51.166;10.322;2024-01-15T12:40:04;12.00;;;7.13;;
26864;SDS011;40618;51.166;10.322;2024-01-15T12:42:32;12.63;;;7.40;;
26864;SDS011;40618;51.166;10.322;2024-01-15T12:44:59;13.85;;;7.50;;
26864;SDS011;40618;51.166;10.322;2024-01-15T12:47:26;9.95;;;6.18;;
26864;SDS011;40618;51.166;10.322;2024-01-15T12:49:52;10.48;;;5.53;;
26864;SDS011;40618;51.166;10.322;2024-01-15T12:52:20;11.40;;;6.57;;
26864;SDS011;40618;51.166;10.322;2024-01-15T12:54:47;12.80;;;6.63;;
26864;SDS011;40618;51.166;10.322;2024-01-15T12:57:15;14.88;;;7.43;;
26864;SDS011;40618;51.166;10.322;2024-01-15T12:59:41;14.43;;;7.15;;
26864;SDS011;40618;51.166;10.322;2024-01-15T13:02:07;12.43;;;6.55;;
26864;SDS011;40618;51.166;10.322;2024-01-15T13:04:33;12.50;;;5.78;;
26864;SDS011;40618;51.166;10.322;2024-01-15T13:06:58;10.38;;;6.20;;
26864;SDS011;40618;51.166;10.322;2024-01-15T13:09:24;13.32;;;5.75;;
26864;SDS011;40618;51.166;10.322;2024-01-15T13:11:49;11.57;;;6.15;;
26864;SDS011;40618;51.166;10.322;2024-01-15T13:14:15;11.88;;;6.07;;
26864;SDS011;40618;51.166;10.322;2024-01-15T13:16:41;11.43;;;6.68;;
26864;SDS011;40618;51.166;10.322;2024-01-15T13:19:09;15.32;;;6.93;;
26864;SDS011;40618;51.166;10.322;2024-01-15T13:21:38;11.27;;;5.93;;
26864;SDS011;40618;51.166;10.322;2024-01-15T13:24:06;8.88;;;5.40;;
26864;SDS011;40618;51.166;10.322;2024-01-15T13:26:32;8.95;;;5.35;;
26864;SDS011;40618;51.166;10.322;2024-01-15T13:29:05;9.82;;;5.72;;
26864;SDS011;40618;51.166;10.322;2024-01-15T13:31:31;12.20;;;7.22;;
26864;SDS011;40618;51.166;10.322;2024-01-15T13:33:57;15.90;;;7.60;;
26864;SDS011;40618;51.166;10.322;2024-01-15T13:36:24;8.40;;;5.15;;
26864;SDS011;40618;51.166;10.322;2024-01-15T13:38:51;8.88;;;4.57;;
26864;SDS011;40618;51.166;10.322;2024-01-15T13:41:18;10.55;;;5.45;;
26864;SDS011;40618;51.166;10.322;2024-01-15T13:43:52;10.00;;;5.45;;
26864;SDS011;40618;51.166;10.322;2024-01-15T13:46:23;10.57;;;4.55;;
26864;SDS011;40618;51.166;10.322;2024-01-15T13:48:51;10.13;;;4.78;;
26864;SDS011;40618;51.166;10.322;2024-01-15T13:51:18;9.38;;;5.30;;
26864;SDS011;40618;51.166;10.322;2024-01-15T13:53:44;7.75;;;4.22;;
26864;SDS011;40618;51.166;10.322;2024-01-15T13:56:09;7.63;;;4.25;;
26864;SDS011;40618;51.166;10.322;2024-01-15T13:58:36;9.80;;;4.85;;
26864;SDS011;40618;51.166;10.322;2024-01-15T14:01:02;9.27;;;4.75;;
26864;SDS011;40618;51.166;10.322;2024-01-15T14:03:31;6.25;;;3.70;;
26864;SDS011;40618;51.166;10.322;2024-01-15T14:05:57;9.27;;;4.22;;
26864;SDS011;40618;51.166;10.322;2024-01-15T14:08:23;9.43;;;4.00;;
26864;SDS011;40618;51.166;10.322;2024-01-15T14:10:49;5.63;;;3.20;;
26864;SDS011;40618;51.166;10.322;2024-01-15T14:13:15;8.25;;;4.38;;
26864;SDS011;40618;51.166;10.322;2024-01-15T14:15:40;6.32;;;4.20;;
26864;SDS011;40618;51.166;10.322;2024-01-15T14:18:06;9.73;;;4.88;;
26864;SDS011;40618;51.166;10.322;2024-01-15T14:20:32;10.40;;;5.25;;
26864;SDS011;40618;51.166;10.322;2024-01-15T14:22:58;5.65;;;3.65;;
26864;SDS011;40618;51.166;10.322;2024-01-15T14:25:23;8.23;;;4.68;;
26864;SDS011;40618;51.166;10.322;2024-01-15T14:27:51;11.30;;;3.95;;
26864;SDS011;40618;51.166;10.322;2024-01-15T14:30:17;9.13;;;4.45;;
26864;SDS011;40618;51.166;10.322;2024-01-15T14:32:43;7.60;;;4.47;;
26864;SDS011;40618;51.166;10.322;2024-01-15T14:35:09;8.52;;;4.10;;
26864;SDS011;40618;51.166;10.322;2024-01-15T14:37:36;5.97;;;3.10;;
26864;SDS011;40618;51.166;10.322;2024-01-15T14:40:03;9.32;;;3.45;;